Time;durP1;ratioP1;P1;durP2;ratioP2;P2;SDS_P1;SDS_P2;PMS_P1;PMS_P2;Temp;Humidity;BMP_temperature;BMP_pressure;BME280_temperature;BME280_humidity;BME280_pressure;Samples;Min_cycle;Max_cycle;Signal;HPM_P1;HPM_P2
2021/07/30 00:00:18;;;;;;;17.02;5.07;;;;;;;27.04;44.51;94766.22;4947341;28;20493;-70
2021/07/30 00:02:43;;;;;;;12.98;5.38;;;;;;;27.02;44.70;94773.50;4963993;28;20035;-70
2021/07/30 00:05:09;;;;;;;13.30;5.43;;;;;;;27.01;44.61;94777.50;4965871;28;20022;-70
2021/07/30 00:07:34;;;;;;;17.80;5.47;;;;;;;26.98;44.79;94776.59;4965493;28;20038;-70
2021/07/30 00:10:00;;;;;;;19.42;5.88;;;;;;;26.95;44.83;94777.66;4967368;28;20050;-70
2021/07/30 00:12:25;;;;;;;12.95;4.50;;;;;;;26.90;45.11;94778.53;4967138;28;20041;-70
2021/07/30 00:14:51;;;;;;;12.48;4.88;;;;;;;26.90;45.11;94770.31;4967281;28;20033;-70
2021/07/30 00:17:16;;;;;;;16.85;5.63;;;;;;;26.89;44.93;94771.59;4967629;28;20022;-70
2021/07/30 00:19:41;;;;;;;13.38;4.93;;;;;;;26.88;45.00;94770.09;4967659;28;20046;-70
2021/07/30 00:22:07;;;;;;;15.80;5.00;;;;;;;26.87;45.44;94767.88;4966168;28;20034;-70
2021/07/30 00:24:32;;;;;;;20.48;6.85;;;;;;;26.85;45.52;94765.69;4965929;28;20114;-70
2021/07/30 00:26:58;;;;;;;14.88;5.05;;;;;;;26.82;45.09;94763.28;4964813;28;20526;-70
2021/07/30 00:29:23;;;;;;;17.80;5.10;;;;;;;26.81;45.67;94770.03;4967122;28;20026;-70
2021/07/30 00:31:49;;;;;;;14.88;5.55;;;;;;;26.77;45.59;94759.44;4965956;28;20494;-70
2021/07/30 00:34:14;;;;;;;17.67;5.18;;;;;;;26.76;45.85;94763.44;4966381;28;20035;-70
2021/07/30 00:36:40;;;;;;;19.30;5.78;;;;;;;26.72;45.70;94753.34;4967023;28;20018;-70
2021/07/30 00:39:05;;;;;;;14.68;5.25;;;;;;;26.72;45.85;94756.09;4966675;28;20030;-70
2021/07/30 00:41:35;;;;;;;18.67;6.50;;;;;;;26.73;45.77;94757.56;4967314;28;20078;-70
2021/07/30 00:44:01;;;;;;;16.63;6.00;;;;;;;26.72;45.99;94761.56;4967224;28;20019;-69
2021/07/30 00:46:28;;;;;;;17.23;5.72;;;;;;;26.73;45.98;94768.53;4965138;28;20046;-70
2021/07/30 00:48:53;;;;;;;16.27;5.18;;;;;;;26.67;46.23;94770.69;4934045;28;20046;-70
2021/07/30 00:51:19;;;;;;;16.65;5.47;;;;;;;26.69;46.34;94763.38;4933026;28;20034;-69
2021/07/30 00:53:44;;;;;;;17.98;6.32;;;;;;;26.42;46.48;94728.47;4949941;28;20762;-70
2021/07/30 00:56:09;;;;;;;15.10;5.80;;;;;;;26.45;46.20;94741.81;4934065;28;20035;-70
2021/07/30 00:58:35;;;;;;;18.20;6.05;;;;;;;26.58;46.16;94763.66;4964893;28;20524;-70
2021/07/30 01:01:00;;;;;;;14.82;5.63;;;;;;;26.59;46.14;94765.13;4966039;28;20054;-70
2021/07/30 01:03:28;;;;;;;15.02;5.60;;;;;;;26.59;46.52;94769.88;4942499;29;20063;-70
2021/07/30 01:05:53;;;;;;;13.90;4.95;;;;;;;26.57;46.43;94777.91;4945425;28;20144;-70
2021/07/30 01:08:19;;;;;;;17.50;5.50;;;;;;;26.37;46.53;94748.53;4947448;29;20027;-70
2021/07/30 01:10:44;;;;;;;17.77;5.70;;;;;;;26.56;46.57;94784.63;4946187;29;20031;-70
2021/07/30 01:13:10;;;;;;;13.85;5.45;;;;;;;26.55;46.52;94769.50;4947313;28;20482;-70
2021/07/30 01:15:35;;;;;;;17.40;6.07;;;;;;;26.54;46.92;94774.22;4951152;29;20027;-70
2021/07/30 01:18:01;;;;;;;13.98;5.47;;;;;;;26.52;46.82;94776.03;4933386;29;20031;-70
2021/07/30 01:20:27;;;;;;;16.02;6.22;;;;;;;26.28;47.03;94743.50;4951061;29;20492;-70
2021/07/30 01:22:53;;;;;;;17.20;5.70;;;;;;;26.51;46.68;94763.59;4934220;29;20027;-70
2021/07/30 01:25:18;;;;;;;13.35;5.22;;;;;;;26.51;46.71;94769.81;4951303;29;20041;-70
2021/07/30 01:27:45;;;;;;;12.93;5.10;;;;;;;26.49;46.84;94766.88;4935653;28;20032;-70
2021/07/30 01:30:11;;;;;;;16.33;5.50;;;;;;;26.51;46.94;94771.81;4931537;29;20526;-70
2021/07/30 01:32:37;;;;;;;11.88;6.18;;;;;;;26.48;46.94;94764.66;4941872;28;20069;-70
2021/07/30 01:35:03;;;;;;;14.82;5.00;;;;;;;26.45;46.78;94774.69;4948797;28;20031;-70
2021/07/30 01:37:28;;;;;;;16.33;5.95;;;;;;;26.45;46.88;94765.75;4950002;29;20035;-69
2021/07/30 01:39:54;;;;;;;12.32;5.63;;;;;;;26.42;47.25;94766.81;4949870;29;20403;-70
2021/07/30 01:42:19;;;;;;;16.05;5.22;;;;;;;26.40;47.42;94763.88;4950674;29;20569;-70
2021/07/30 01:44:45;;;;;;;14.32;5.85;;;;;;;26.36;47.39;94758.72;4946240;28;20035;-70
2021/07/30 01:47:10;;;;;;;19.15;6.07;;;;;;;26.35;47.56;94762.00;4950442;29;20027;-70
2021/07/30 01:49:36;;;;;;;13.60;5.20;;;;;;;26.35;47.56;94767.47;4947670;28;20038;-70
2021/07/30 01:52:01;;;;;;;17.63;6.53;;;;;;;26.35;47.37;94762.00;4933614;29;20031;-70
2021/07/30 01:54:27;;;;;;;15.95;6.15;;;;;;;26.35;47.67;94756.50;4947809;28;20053;-70
2021/07/30 01:56:52;;;;;;;13.73;5.35;;;;;;;26.35;47.51;94759.25;4950577;28;20089;-70
2021/07/30 01:59:18;;;;;;;13.68;5.85;;;;;;;26.34;47.60;94755.06;4949511;28;20086;-70
2021/07/30 02:01:43;;;;;;;11.70;5.25;;;;;;;26.27;47.48;94755.69;4933501;29;20027;-70
2021/07/30 02:04:09;;;;;;;15.50;6.10;;;;;;;26.30;47.85;94754.66;4958764;28;20043;-70
2021/07/30 02:06:34;;;;;;;15.07;5.65;;;;;;;26.28;47.74;94762.69;4969744;28;20031;-69
2021/07/30 02:09:00;;;;;;;14.32;6.47;;;;;;;26.27;47.86;94761.16;4968510;28;20019;-70
2021/07/30 02:11:25;;;;;;;14.27;5.47;;;;;;;26.25;48.07;94769.19;4969525;28;20027;-70
2021/07/30 02:14:36;;;;;;;16.00;5.15;;;;;;;26.24;47.88;94767.72;4966075;28;20081;-70
2021/07/30 02:16:37;;;;;;;14.90;6.10;;;;;;;26.23;47.80;94760.03;4955131;28;20042;-70
2021/07/30 02:19:03;;;;;;;15.38;5.15;;;;;;;26.23;47.90;94771.72;4968826;28;20069;-70
2021/07/30 02:21:28;;;;;;;16.80;5.72;;;;;;;26.23;47.91;94760.75;4969413;28;20490;-70
2021/07/30 02:23:54;;;;;;;18.42;5.75;;;;;;;26.21;47.92;94768.78;4966320;28;20031;-70
2021/07/30 02:26:19;;;;;;;15.02;5.63;;;;;;;26.19;47.92;94771.31;4949494;28;20035;-70
2021/07/30 02:28:45;;;;;;;16.75;5.78;;;;;;;25.85;47.86;94721.34;4968333;28;20022;-70
2021/07/30 02:31:10;;;;;;;11.88;5.70;;;;;;;26.16;48.43;94777.88;4951028;28;20019;-69
2021/07/30 02:33:36;;;;;;;19.33;5.90;;;;;;;26.15;48.62;94770.91;4951237;28;20031;-70
2021/07/30 02:36:01;;;;;;;12.70;5.55;;;;;;;26.12;48.39;94782.94;4968610;28;20082;-69
2021/07/30 02:38:26;;;;;;;15.07;5.65;;;;;;;25.85;48.39;94743.25;4968211;28;20089;-70
2021/07/30 02:40:52;;;;;;;16.67;5.60;;;;;;;26.11;48.60;94781.44;4968807;28;20067;-70
2021/07/30 02:43:17;;;;;;;13.27;5.10;;;;;;;26.10;48.69;94780.00;4965396;28;21732;-70
2021/07/30 02:45:43;;;;;;;18.73;6.55;;;;;;;26.09;48.58;94783.28;4968770;28;20033;-69
2021/07/30 02:48:08;;;;;;;15.35;5.95;;;;;;;26.07;48.68;94786.53;4967619;28;20031;-70
2021/07/30 02:50:34;;;;;;;14.48;5.03;;;;;;;26.08;49.13;94793.47;4969087;28;20030;-69
2021/07/30 02:52:59;;;;;;;13.80;5.65;;;;;;;25.93;49.09;94765.97;4966566;28;20042;-70
2021/07/30 02:55:24;;;;;;;16.30;6.10;;;;;;;26.06;49.14;94784.34;4968582;28;20031;-70
2021/07/30 02:57:50;;;;;;;14.20;6.45;;;;;;;26.07;48.99;94791.25;4966618;28;20137;-70
2021/07/30 03:00:16;;;;;;;15.13;6.28;;;;;;;26.06;48.92;94790.53;4968471;28;20409;-70
2021/07/30 03:02:41;;;;;;;13.65;5.25;;;;;;;26.04;49.16;94790.34;4967885;28;20081;-70
2021/07/30 03:05:07;;;;;;;15.45;5.85;;;;;;;26.01;49.25;94791.41;4948908;28;20037;-70
2021/07/30 03:07:32;;;;;;;12.50;5.72;;;;;;;25.99;49.18;94785.72;4968355;28;20030;-69
2021/07/30 03:09:58;;;;;;;12.65;5.65;;;;;;;25.97;49.48;94788.25;4964130;28;20030;-70
2021/07/30 03:12:23;;;;;;;14.88;6.22;;;;;;;25.98;49.41;94795.19;4962903;28;20034;-70
2021/07/30 03:14:49;;;;;;;16.25;5.90;;;;;;;25.97;49.42;94793.72;4963121;28;20046;-70
2021/07/30 03:17:14;;;;;;;14.90;6.10;;;;;;;25.97;49.30;94788.25;4962219;28;20053;-70
2021/07/30 03:19:39;;;;;;;17.63;6.05;;;;;;;25.97;49.50;94788.25;4962976;28;20042;-70
2021/07/30 03:22:05;;;;;;;15.90;6.43;;;;;;;25.97;49.60;94796.47;4961718;28;20049;-70
2021/07/30 03:24:30;;;;;;;14.02;6.00;;;;;;;25.94;49.62;94800.25;4961426;28;20030;-69
2021/07/30 03:26:56;;;;;;;17.42;5.68;;;;;;;25.92;49.91;94796.59;4946067;28;20038;-69
2021/07/30 03:29:21;;;;;;;16.75;6.47;;;;;;;25.89;49.93;94797.66;4966767;28;20027;-70
2021/07/30 03:31:47;;;;;;;17.00;6.20;;;;;;;25.87;49.96;94795.44;4965679;28;20092;-70
2021/07/30 03:34:14;;;;;;;16.25;6.20;;;;;;;25.84;49.94;94790.28;4966614;28;20080;-70
2021/07/30 03:36:40;;;;;;;15.73;7.10;;;;;;;25.86;49.99;94793.97;4949215;28;20160;-70
2021/07/30 03:39:05;;;;;;;16.58;6.70;;;;;;;25.85;49.97;94803.44;4967240;28;20054;-70
2021/07/30 03:41:31;;;;;;;13.60;6.18;;;;;;;25.85;49.82;94803.44;4950706;28;20022;-70
2021/07/30 03:43:56;;;;;;;17.25;6.70;;;;;;;25.82;50.11;94804.50;4961300;28;20026;-69
2021/07/30 03:46:22;;;;;;;14.43;5.85;;;;;;;25.83;50.32;94805.97;4948745;29;20766;-70
2021/07/30 03:48:47;;;;;;;13.90;6.05;;;;;;;25.83;50.24;94808.72;4947958;29;20035;-70
2021/07/30 03:51:12;;;;;;;16.95;6.07;;;;;;;25.80;50.35;94807.03;4948116;28;20836;-70
2021/07/30 03:53:38;;;;;;;18.77;7.22;;;;;;;25.79;50.25;94811.03;4966742;28;20031;-70
2021/07/30 03:56:14;;;;;;;11.75;6.22;;;;;;;25.79;50.40;94811.03;4967425;28;20027;-70
2021/07/30 03:58:43;;;;;;;14.20;5.97;;;;;;;25.79;50.40;94811.03;4965484;28;20580;-69
2021/07/30 04:01:09;;;;;;;12.52;6.07;;;;;;;25.60;50.00;94776.13;4966459;28;20030;-70
2021/07/30 04:03:35;;;;;;;15.35;6.30;;;;;;;25.79;50.20;94805.56;4949931;28;20058;-70
2021/07/30 04:06:01;;;;;;;17.17;6.55;;;;;;;25.80;49.98;94807.03;4965666;28;20061;-70
2021/07/30 04:08:27;;;;;;;16.88;6.50;;;;;;;25.81;50.19;94796.81;4966439;28;20035;-70
2021/07/30 04:10:52;;;;;;;15.98;6.50;;;;;;;25.81;49.92;94803.03;4966712;28;20045;-69
2021/07/30 04:13:18;;;;;;;12.90;5.85;;;;;;;25.81;50.10;94803.03;4966609;28;20042;-69
2021/07/30 04:15:43;;;;;;;16.67;7.15;;;;;;;25.81;50.34;94797.56;4965696;28;20031;-69
2021/07/30 04:18:08;;;;;;;17.20;6.15;;;;;;;25.85;50.25;94803.44;4966933;28;20031;-69
2021/07/30 04:20:34;;;;;;;13.18;6.05;;;;;;;25.41;50.22;94731.78;4965913;28;20029;-69
2021/07/30 04:22:59;;;;;;;17.77;6.72;;;;;;;25.87;50.07;94805.66;4967648;28;20030;-70
2021/07/30 04:25:25;;;;;;;16.15;6.60;;;;;;;25.89;49.85;94806.59;4965730;28;20015;-70
2021/07/30 04:27:50;;;;;;;17.30;6.95;;;;;;;25.92;49.78;94811.00;4966412;28;20418;-70
2021/07/30 04:30:16;;;;;;;16.05;6.40;;;;;;;25.90;49.68;94802.59;4965431;28;20035;-70
2021/07/30 04:32:41;;;;;;;17.58;6.57;;;;;;;25.91;49.51;94806.78;4967457;28;20031;-69
2021/07/30 04:35:07;;;;;;;15.15;6.20;;;;;;;25.91;50.26;94812.25;4963342;28;20071;-70
2021/07/30 04:37:32;;;;;;;16.33;6.95;;;;;;;25.79;50.33;94789.13;4967533;28;20163;-70
2021/07/30 04:39:57;;;;;;;13.90;6.15;;;;;;;25.94;50.48;94811.19;4965924;28;20553;-69
2021/07/30 04:42:24;;;;;;;15.95;6.40;;;;;;;25.95;50.57;94804.47;4966354;28;20035;-70
2021/07/30 04:44:50;;;;;;;15.95;6.25;;;;;;;25.98;50.66;94806.16;4966225;28;20569;-70
2021/07/30 04:47:15;;;;;;;16.30;6.57;;;;;;;26.02;49.53;94801.09;4966494;28;20022;-70
2021/07/30 04:49:40;;;;;;;18.10;7.05;;;;;;;26.04;48.92;94801.28;4970781;28;20034;-70
2021/07/30 04:52:06;;;;;;;18.60;6.85;;;;;;;26.05;49.79;94815.69;4969618;28;20026;-71
2021/07/30 04:54:31;;;;;;;17.90;6.43;;;;;;;26.05;49.87;94810.97;4967567;28;20030;-70
2021/07/30 04:56:57;;;;;;;17.35;6.80;;;;;;;26.05;49.73;94810.97;4970576;28;20065;-70
2021/07/30 04:59:22;;;;;;;20.25;6.38;;;;;;;26.04;51.65;94809.50;4967429;28;20019;-69
2021/07/30 05:01:48;;;;;;;18.50;7.53;;;;;;;26.06;51.17;94806.94;4953009;28;20453;-70
2021/07/30 05:04:14;;;;;;;14.07;6.35;;;;;;;26.07;51.72;94813.16;4978423;28;20035;-70
2021/07/30 05:06:39;;;;;;;21.50;7.68;;;;;;;26.10;49.58;94817.56;4959803;28;20027;-70
2021/07/30 05:09:04;;;;;;;19.90;9.70;;;;;;;26.12;50.62;94818.50;4963131;28;20027;-70
2021/07/30 05:11:30;;;;;;;16.60;8.00;;;;;;;26.19;50.52;94819.84;4959148;28;20022;-72
2021/07/30 05:13:55;;;;;;;21.30;8.50;;;;;;;26.23;49.06;94815.50;4969118;28;20438;-71
2021/07/30 05:16:21;;;;;;;19.10;6.65;;;;;;;26.26;48.45;94814.44;4961682;28;20357;-69
2021/07/30 05:18:46;;;;;;;19.45;7.47;;;;;;;26.33;48.07;94824.78;4980217;28;20047;-69
2021/07/30 05:21:12;;;;;;;19.27;6.95;;;;;;;26.43;47.68;94828.53;4964761;28;20182;-72
2021/07/30 05:23:38;;;;;;;20.70;7.43;;;;;;;26.54;47.81;94817.31;4967097;28;20034;-69
2021/07/30 05:26:03;;;;;;;15.70;7.05;;;;;;;26.56;48.30;94831.19;4966370;28;20190;-73
2021/07/30 05:28:29;;;;;;;16.58;6.63;;;;;;;26.64;48.65;94832.00;4969355;28;20037;-71
2021/07/30 05:30:57;;;;;;;21.92;7.45;;;;;;;26.76;48.83;94822.25;4969890;28;20039;-72
2021/07/30 05:33:23;;;;;;;14.98;7.35;;;;;;;26.70;47.30;94803.19;4969922;28;20037;-73
2021/07/30 05:35:48;;;;;;;19.73;7.68;;;;;;;27.00;47.57;94831.59;4985131;28;20125;-73
2021/07/30 05:38:14;;;;;;;19.20;6.40;;;;;;;27.12;47.89;94823.84;4969680;28;20030;-71
2021/07/30 05:40:42;;;;;;;21.13;7.13;;;;;;;27.24;46.37;94828.47;4969156;28;20029;-72
2021/07/30 05:43:07;;;;;;;19.85;7.13;;;;;;;27.34;46.41;94826.72;4969623;28;20041;-72
2021/07/30 05:45:34;;;;;;;26.75;8.45;;;;;;;27.41;46.15;94834.25;4969997;28;20022;-72
2021/07/30 05:47:59;;;;;;;22.35;7.65;;;;;;;27.34;46.63;94821.22;4968880;28;20039;-72
2021/07/30 05:50:25;;;;;;;20.00;7.10;;;;;;;27.49;45.77;94829.53;4969475;28;20050;-70
2021/07/30 05:52:51;;;;;;;19.20;6.82;;;;;;;27.48;45.67;94819.84;4969071;28;20026;-70
2021/07/30 05:55:17;;;;;;;18.65;7.28;;;;;;;27.63;44.93;94830.91;4983238;28;20019;-71
2021/07/30 05:57:42;;;;;;;21.23;7.55;;;;;;;27.72;44.55;94825.66;4969099;28;20033;-71
2021/07/30 06:00:08;;;;;;;20.33;7.30;;;;;;;27.74;44.61;94831.31;4968066;28;20037;-71
2021/07/30 06:02:33;;;;;;;25.05;7.93;;;;;;;27.82;44.28;94824.59;4968711;28;20194;-71
2021/07/30 06:04:59;;;;;;;18.52;7.57;;;;;;;27.88;44.01;94819.69;4983687;28;20181;-70
2021/07/30 06:07:24;;;;;;;23.45;7.50;;;;;;;27.84;44.55;94813.81;4968827;28;20018;-70
2021/07/30 06:09:50;;;;;;;20.45;7.78;;;;;;;27.95;44.11;94812.75;4968218;28;20399;-71
2021/07/30 06:12:15;;;;;;;21.75;7.25;;;;;;;28.01;43.83;94822.28;4968853;28;20043;-71
2021/07/30 06:14:41;;;;;;;20.30;7.43;;;;;;;28.21;42.82;94818.00;4968507;28;20037;-71
2021/07/30 06:17:06;;;;;;;25.10;7.45;;;;;;;28.31;42.73;94822.38;4968000;28;20211;-71
2021/07/30 06:19:31;;;;;;;20.08;7.03;;;;;;;28.38;42.98;94816.19;4951960;28;20619;-71
2021/07/30 06:21:58;;;;;;;24.35;7.75;;;;;;;28.21;42.16;94780.25;4968225;28;20594;-71
2021/07/30 06:24:24;;;;;;;22.20;6.90;;;;;;;28.17;43.57;94790.88;4963995;28;20135;-69
2021/07/30 06:26:49;;;;;;;19.20;7.65;;;;;;;28.40;43.93;94813.59;4957247;28;20070;-69
2021/07/30 06:29:15;;;;;;;22.55;8.00;;;;;;;28.38;42.17;94821.69;4963535;28;20026;-70
2021/07/30 06:31:41;;;;;;;23.02;8.30;;;;;;;28.33;42.35;94814.34;4964138;28;20477;-69
2021/07/30 06:34:07;;;;;;;19.23;7.05;;;;;;;28.30;42.93;94809.94;4959686;28;20039;-69
2021/07/30 06:36:32;;;;;;;24.60;7.47;;;;;;;28.29;42.80;94824.94;4964426;28;20027;-69
2021/07/30 06:38:58;;;;;;;23.42;7.88;;;;;;;28.33;42.66;94812.31;4958290;28;20039;-69
2021/07/30 06:41:23;;;;;;;18.20;6.97;;;;;;;28.32;43.03;94821.13;4964360;28;20027;-70
2021/07/30 06:43:49;;;;;;;22.92;7.63;;;;;;;28.23;42.82;94816.16;4961992;28;20034;-70
2021/07/30 06:46:15;;;;;;;22.17;7.93;;;;;;;28.18;43.04;94814.31;4960906;28;20114;-70
2021/07/30 06:48:40;;;;;;;24.52;7.68;;;;;;;28.26;42.59;94813.03;4967863;28;20035;-70
2021/07/30 06:51:06;;;;;;;23.27;7.25;;;;;;;28.27;42.11;94809.03;4968568;28;20074;-69
2021/07/30 06:53:31;;;;;;;23.60;7.60;;;;;;;27.99;42.72;94780.91;4968013;28;20062;-70
2021/07/30 06:55:57;;;;;;;16.25;7.70;;;;;;;28.18;42.15;94802.59;4966093;28;20045;-69
2021/07/30 06:58:22;;;;;;;23.75;7.57;;;;;;;28.20;42.19;94811.75;4968326;28;20015;-70
2021/07/30 07:00:48;;;;;;;28.05;7.53;;;;;;;27.82;42.40;94755.97;4966801;28;20030;-70
2021/07/30 07:03:13;;;;;;;24.80;8.05;;;;;;;28.24;42.54;94809.38;4966401;28;20506;-70
2021/07/30 07:05:39;;;;;;;18.65;7.30;;;;;;;28.23;41.93;94799.66;4968038;28;20030;-71
2021/07/30 07:08:05;;;;;;;26.58;7.82;;;;;;;28.26;42.57;94809.56;4968065;28;20030;-69
2021/07/30 07:10:30;;;;;;;19.10;7.97;;;;;;;28.25;42.90;94810.84;4967658;28;20022;-70
2021/07/30 07:12:55;;;;;;;22.75;7.40;;;;;;;28.25;42.68;94805.34;4967568;28;20429;-70
2021/07/30 07:15:21;;;;;;;19.17;7.88;;;;;;;28.26;42.95;94809.56;4967116;28;20479;-70
2021/07/30 07:17:46;;;;;;;25.02;7.47;;;;;;;28.28;43.49;94801.50;4964816;28;20037;-71
2021/07/30 07:20:12;;;;;;;19.02;7.07;;;;;;;28.20;43.80;94798.00;4965562;28;20481;-70
2021/07/30 07:22:37;;;;;;;21.15;8.63;;;;;;;28.25;44.04;94808.84;4954904;28;20031;-70
2021/07/30 07:25:03;;;;;;;19.38;7.65;;;;;;;28.21;43.27;94791.25;4966250;28;20030;-70
2021/07/30 07:27:28;;;;;;;23.17;8.02;;;;;;;28.28;43.48;94804.25;4967704;28;20030;-70
2021/07/30 07:29:54;;;;;;;22.08;8.52;;;;;;;28.29;43.71;94802.97;4966886;28;20023;-70
2021/07/30 07:32:19;;;;;;;16.17;7.00;;;;;;;28.31;43.45;94800.41;4968348;28;20417;-70
2021/07/30 07:34:45;;;;;;;19.20;7.97;;;;;;;28.31;43.01;94800.41;4963864;28;20166;-70
2021/07/30 07:37:10;;;;;;;20.85;7.70;;;;;;;28.32;43.12;94785.41;4982131;28;20035;-70
2021/07/30 07:39:36;;;;;;;23.50;8.35;;;;;;;28.45;42.42;94798.97;4967914;28;20418;-69
2021/07/30 07:42:01;;;;;;;21.23;8.15;;;;;;;28.45;42.32;94796.25;4967962;28;20037;-69
2021/07/30 07:44:27;;;;;;;24.38;8.20;;;;;;;28.42;42.01;94783.59;4966458;28;20480;-69
2021/07/30 07:46:52;;;;;;;14.52;6.78;;;;;;;28.47;42.14;94790.91;4967975;28;20035;-70
2021/07/30 07:49:18;;;;;;;19.75;7.03;;;;;;;28.15;41.95;94752.25;4967138;28;20687;-70
2021/07/30 07:51:43;;;;;;;18.17;7.15;;;;;;;28.44;42.38;94792.00;4968110;28;20092;-70
2021/07/30 07:54:09;;;;;;;19.75;7.35;;;;;;;28.47;42.39;94793.66;4969624;28;20039;-69
2021/07/30 07:56:34;;;;;;;27.02;8.98;;;;;;;28.53;42.31;94788.72;4973230;28;20030;-69
2021/07/30 07:59:00;;;;;;;22.67;8.23;;;;;;;28.26;42.51;94743.66;4971734;28;20434;-68
2021/07/30 08:01:26;;;;;;;21.73;7.97;;;;;;;28.49;42.54;94782.84;4974411;28;20026;-69
2021/07/30 08:03:51;;;;;;;24.10;7.57;;;;;;;28.57;41.96;94789.09;4973517;28;20687;-68
2021/07/30 08:06:21;;;;;;;23.55;8.15;;;;;;;28.54;42.07;94773.72;4972541;28;20038;-70
2021/07/30 08:08:47;;;;;;;22.45;8.15;;;;;;;28.58;42.80;94768.56;4967704;28;20031;-71
2021/07/30 08:11:12;;;;;;;19.38;7.45;;;;;;;28.58;42.13;94779.56;4968051;28;20030;-69
2021/07/30 08:13:38;;;;;;;18.45;7.55;;;;;;;28.54;42.18;94774.44;4969311;28;20030;-70
2021/07/30 08:16:03;;;;;;;18.83;7.30;;;;;;;28.51;41.80;94774.81;4966623;28;20031;-70
2021/07/30 08:18:29;;;;;;;17.00;8.38;;;;;;;28.26;41.67;94771.84;4968323;28;20031;-70
2021/07/30 08:20:54;;;;;;;18.25;7.70;;;;;;;28.08;41.60;94777.63;4947450;28;20030;-70
2021/07/30 08:23:20;;;;;;;19.48;7.25;;;;;;;27.98;42.69;94773.22;4970083;28;20045;-73
2021/07/30 08:25:45;;;;;;;16.38;7.47;;;;;;;27.88;42.45;94775.75;4968471;28;20497;-70
2021/07/30 08:28:11;;;;;;;21.63;9.13;;;;;;;27.71;41.87;94772.03;4971388;28;20046;-70
2021/07/30 08:30:36;;;;;;;17.50;8.15;;;;;;;27.54;42.31;94779.28;4968188;28;20026;-69
2021/07/30 08:33:02;;;;;;;20.52;7.05;;;;;;;27.28;42.15;94757.56;4970963;28;20026;-69
2021/07/30 08:35:28;;;;;;;19.98;7.90;;;;;;;27.28;42.12;94763.06;4967478;28;20031;-70
2021/07/30 08:37:54;;;;;;;14.75;7.30;;;;;;;27.01;42.13;94744.59;4961102;28;20102;-69
2021/07/30 08:40:19;;;;;;;21.73;8.07;;;;;;;27.08;41.60;94760.38;4934549;28;20542;-69
2021/07/30 08:42:46;;;;;;;16.15;7.28;;;;;;;26.82;41.80;94744.84;4968662;28;20046;-69
2021/07/30 08:45:12;;;;;;;16.48;6.97;;;;;;;26.86;41.60;94750.72;4969069;28;20081;-69
2021/07/30 08:47:37;;;;;;;16.98;7.43;;;;;;;26.77;41.27;94759.44;4970471;28;20023;-69
2021/07/30 08:50:04;;;;;;;16.58;7.18;;;;;;;26.70;41.58;94747.69;4951413;28;20035;-69
2021/07/30 08:52:32;;;;;;;15.77;7.57;;;;;;;26.62;41.58;94746.88;4970856;28;20033;-69
2021/07/30 08:54:57;;;;;;;15.23;7.00;;;;;;;26.56;41.38;94743.53;4944663;28;20027;-70
2021/07/30 08:57:23;;;;;;;15.15;6.60;;;;;;;26.48;41.34;94742.75;4970701;28;21317;-69
2021/07/30 08:59:48;;;;;;;16.90;6.85;;;;;;;26.41;41.29;94729.72;4968414;28;20026;-70
2021/07/30 09:02:13;;;;;;;13.02;6.38;;;;;;;26.30;41.05;94727.28;4970199;28;20509;-69
2021/07/30 09:04:39;;;;;;;14.32;6.60;;;;;;;26.27;40.82;94713.91;4968178;28;20093;-69
2021/07/30 09:07:04;;;;;;;13.07;6.53;;;;;;;26.26;40.66;94732.31;4970134;28;20033;-69
2021/07/30 09:09:31;;;;;;;12.77;6.18;;;;;;;26.00;40.63;94698.88;4965898;28;20757;-69
2021/07/30 09:11:59;;;;;;;12.30;6.93;;;;;;;26.18;40.82;94726.06;4951697;28;20022;-69
2021/07/30 09:14:35;;;;;;;14.82;7.30;;;;;;;26.13;40.89;94718.72;4969069;28;20031;-69
2021/07/30 09:17:01;;;;;;;14.35;6.20;;;;;;;26.13;40.85;94718.72;4968667;28;20027;-70
2021/07/30 09:19:26;;;;;;;16.00;6.80;;;;;;;26.11;40.93;94709.56;4968659;28;20030;-69
2021/07/30 09:22:08;;;;;;;12.45;6.70;;;;;;;26.11;40.65;94704.81;4969821;28;20030;-69
2021/07/30 09:24:34;;;;;;;13.55;6.53;;;;;;;26.08;40.54;94699.69;4968768;28;20054;-69
2021/07/30 09:27:00;;;;;;;12.90;5.80;;;;;;;26.07;40.65;94704.44;4970457;28;20031;-69
2021/07/30 09:29:27;;;;;;;13.52;6.00;;;;;;;25.86;40.59;94670.84;4957563;28;20046;-69
2021/07/30 09:31:53;;;;;;;10.85;6.07;;;;;;;26.01;40.63;94695.63;4950926;29;20033;-69
2021/07/30 09:34:22;;;;;;;12.00;6.20;;;;;;;26.01;40.52;94690.16;4958203;28;20054;-69
2021/07/30 09:37:08;;;;;;;12.52;5.85;;;;;;;26.00;40.61;94688.66;4967239;28;20034;-69
2021/07/30 09:39:40;;;;;;;12.27;6.10;;;;;;;26.00;40.52;94688.66;4967926;28;20039;-70
2021/07/30 09:42:10;;;;;;;12.65;6.18;;;;;;;26.03;40.60;94684.13;4970061;28;20085;-70
2021/07/30 09:44:41;;;;;;;11.02;5.28;;;;;;;26.04;40.52;94678.13;4965228;28;20625;-69
2021/07/30 09:47:22;;;;;;;10.82;5.78;;;;;;;26.03;40.56;94676.66;4951645;28;20035;-69
2021/07/30 09:49:55;;;;;;;9.60;5.40;;;;;;;26.02;40.31;94677.94;4954224;28;20038;-70
2021/07/30 09:52:24;;;;;;;11.70;6.00;;;;;;;26.04;40.38;94672.66;4969150;28;20050;-70
2021/07/30 09:54:57;;;;;;;11.18;5.72;;;;;;;26.07;40.32;94677.06;4967251;28;20027;-71
2021/07/30 09:57:33;;;;;;;10.95;5.45;;;;;;;26.09;40.34;94671.78;4969406;28;20031;-75
2021/07/30 10:00:03;;;;;;;9.63;5.63;;;;;;;25.95;40.16;94637.56;4967804;28;20624;-73
2021/07/30 10:02:33;;;;;;;10.82;5.72;;;;;;;26.18;40.32;94660.34;4952960;28;20033;-74
2021/07/30 10:04:59;;;;;;;9.95;5.20;;;;;;;26.21;40.00;94664.75;4969200;28;20054;-73
2021/07/30 10:07:26;;;;;;;10.18;5.72;;;;;;;26.24;39.92;94663.69;4969619;28;20494;-73
2021/07/30 10:10:02;;;;;;;10.70;5.30;;;;;;;26.30;39.74;94661.56;4968926;28;20513;-73
2021/07/30 10:12:32;;;;;;;10.48;5.63;;;;;;;26.40;39.42;94665.31;4969557;28;20161;-73
2021/07/30 10:14:59;;;;;;;12.85;5.80;;;;;;;26.44;39.76;94660.19;4963252;28;20034;-72
2021/07/30 10:17:32;;;;;;;10.07;5.72;;;;;;;26.53;39.10;94654.22;4968987;28;20026;-72
2021/07/30 10:20:05;;;;;;;10.45;5.20;;;;;;;26.56;39.42;94650.41;4968487;28;20034;-72
2021/07/30 10:22:55;;;;;;;9.88;5.40;;;;;;;26.60;39.01;94645.34;4968334;28;20030;-71
2021/07/30 10:25:30;;;;;;;;;;;;;;;26.62;39.05;94648.25;4945917;28;20038;-73
2021/07/30 10:27:58;;;;;;;11.57;4.82;;;;;;;26.65;38.91;94636.22;4967599;28;19917;-72
2021/07/30 10:30:24;;;;;;;9.52;5.03;;;;;;;26.68;39.10;94624.19;4968853;28;20085;-72
2021/07/30 10:33:01;;;;;;;9.23;5.15;;;;;;;26.79;38.66;94630.09;4951209;28;20027;-73
2021/07/30 10:35:26;;;;;;;10.18;4.90;;;;;;;26.83;38.75;94625.75;4968556;28;20035;-73
2021/07/30 10:38:11;;;;;;;9.00;4.80;;;;;;;26.85;38.75;94617.69;4968147;28;20540;-73
2021/07/30 10:40:37;;;;;;;7.93;5.05;;;;;;;26.87;38.70;94615.16;4953762;28;20051;-74
2021/07/30 10:43:08;;;;;;;8.32;5.07;;;;;;;26.94;38.25;94608.28;4968443;28;20038;-74
2021/07/30 10:45:43;;;;;;;9.23;5.22;;;;;;;26.98;38.39;94603.91;4968041;28;20026;-74
2021/07/30 10:48:15;;;;;;;9.27;5.40;;;;;;;27.05;38.37;94608.66;4950761;28;20493;-74
2021/07/30 10:50:43;;;;;;;10.73;5.53;;;;;;;27.10;38.21;94605.06;4968260;28;20038;-74
2021/07/30 10:53:34;;;;;;;10.75;4.80;;;;;;;27.15;38.12;94589.72;4967974;28;20034;-71
2021/07/30 10:56:03;;;;;;;11.30;5.47;;;;;;;27.24;37.78;94593.38;4967609;28;20058;-71
2021/07/30 10:58:40;;;;;;;10.50;4.82;;;;;;;27.35;37.61;94586.81;4967950;28;20106;-72
2021/07/30 11:01:29;;;;;;;10.70;4.78;;;;;;;27.39;37.44;94581.72;4967579;28;20031;-70
2021/07/30 11:03:56;;;;;;;9.20;4.50;;;;;;;27.37;37.56;94578.81;4927743;28;20065;-70
2021/07/30 11:06:30;;;;;;;10.98;5.00;;;;;;;27.40;37.36;94577.72;4967636;28;20057;-70
2021/07/30 11:11:52;;;;;;;8.23;5.15;;;;;;;27.38;37.60;94577.50;4952186;28;20127;-70
2021/07/30 11:14:33;;;;;;;9.85;4.75;;;;;;;27.35;37.79;94570.38;4962486;28;20085;-70
2021/07/30 11:16:59;;;;;;;9.50;5.45;;;;;;;27.30;37.69;94563.06;4954899;28;20031;-70
2021/07/30 11:19:26;;;;;;;9.70;4.95;;;;;;;27.28;37.72;94560.13;4952404;28;20074;-69
2021/07/30 11:21:51;;;;;;;8.77;5.38;;;;;;;27.28;37.74;94562.88;4955717;28;20023;-69
2021/07/30 11:24:17;;;;;;;9.48;5.07;;;;;;;27.27;38.12;94564.16;4967588;28;20105;-69
2021/07/30 11:26:43;;;;;;;8.35;4.93;;;;;;;27.24;37.87;94559.03;4967386;28;20085;-69